Time;durP1;ratioP1;P1;durP2;ratioP2;P2;SDS_P1;SDS_P2;PMS_P1;PMS_P2;Temp;Humidity;BMP_temperature;BMP_pressure;BME280_temperature;BME280_humidity;BME280_pressure;Samples;Min_cycle;Max_cycle;Signal;HPM_P1;HPM_P2
2022/05/02 00:02:18;;;;;;;15.77;9.38;;;9.20;1.00;;;9.86;73.97;99439.84;5004679;28;129903;-67
2022/05/02 00:04:47;;;;;;;16.73;8.82;;;9.20;1.00;;;9.86;73.55;99429.84;5019370;28;130252;-68
2022/05/02 00:07:16;;;;;;;14.52;9.30;;;9.20;1.00;;;9.85;74.28;99438.28;5018670;28;122200;-70
2022/05/02 00:09:44;;;;;;;16.98;8.95;;;9.10;1.00;;;9.80;74.35;99427.53;5019767;28;121659;-69
2022/05/02 00:12:13;;;;;;;14.30;9.45;;;9.10;1.00;;;9.78;74.41;99432.47;5021007;28;128893;-70
2022/05/02 00:14:42;;;;;;;16.17;9.45;;;9.10;1.00;;;9.85;74.20;99432.84;5019394;28;129798;-69
2022/05/02 00:17:11;;;;;;;17.55;8.50;;;9.00;1.00;;;9.87;73.87;99425.22;5004407;28;119770;-73
2022/05/02 00:19:40;;;;;;;12.75;8.30;;;9.00;1.00;;;9.98;73.25;99418.41;5001379;28;119813;-70
2022/05/02 00:22:08;;;;;;;13.88;8.90;;;8.90;1.00;;;10.02;73.48;99411.28;5019812;28;130243;-69
2022/05/02 00:24:37;;;;;;;16.63;9.85;;;8.90;1.00;;;9.90;74.87;99414.53;5019719;28;130726;-70
2022/05/02 00:27:07;;;;;;;14.70;9.52;;;8.80;1.00;;;9.74;75.44;99409.78;5019581;28;119751;-71
2022/05/02 00:29:35;;;;;;;19.05;9.45;;;8.80;1.00;;;9.62;75.99;99397.59;5019996;28;119902;-71
2022/05/02 00:32:05;;;;;;;11.95;8.90;;;8.80;1.00;;;9.55;76.14;99394.50;5003098;28;129440;-71
2022/05/02 00:34:35;;;;;;;15.07;9.30;;;8.70;1.00;;;9.59;75.79;99398.22;5019226;28;129758;-74
2022/05/02 00:37:03;;;;;;;18.88;10.25;;;8.70;1.00;;;9.45;76.67;99392.06;5019935;28;119976;-74
2022/05/02 00:39:32;;;;;;;16.33;9.73;;;8.60;1.00;;;9.45;76.82;99402.91;5019475;28;119855;-70
2022/05/02 00:42:01;;;;;;;14.23;9.32;;;8.50;1.00;;;9.53;75.93;99399.44;5018957;28;130707;-70
2022/05/02 00:44:29;;;;;;;14.80;9.60;;;8.50;1.00;;;9.59;75.76;99400.94;5004223;28;129577;-71
2022/05/02 00:46:57;;;;;;;13.25;9.23;;;8.40;1.00;;;9.56;76.08;99398.84;5021497;28;120175;-68
2022/05/02 00:49:26;;;;;;;16.80;10.30;;;8.40;1.00;;;9.62;76.26;99394.91;5019899;28;120130;-69
2022/05/02 00:51:56;;;;;;;15.48;9.73;;;8.40;1.00;;;9.55;77.26;99397.22;5019129;28;129691;-69
2022/05/02 00:54:24;;;;;;;13.50;9.30;;;8.40;1.00;;;9.61;77.10;99390.56;5019055;28;129294;-70
2022/05/02 00:56:53;;;;;;;13.18;9.02;;;8.50;1.00;;;9.71;76.26;99395.75;5017905;28;121494;-70
2022/05/02 00:59:24;;;;;;;15.85;9.57;;;8.50;1.00;;;9.74;76.74;99398.97;5019079;28;121896;-69
2022/05/02 01:01:54;;;;;;;14.43;9.82;;;8.50;1.00;;;9.62;77.75;99394.91;5018892;28;130074;-68
2022/05/02 01:04:22;;;;;;;15.55;9.52;;;8.60;1.00;;;9.40;80.19;99394.91;5018875;28;129684;-68
2022/05/02 01:09:41;;;;;;;14.27;10.33;;;8.50;1.00;;;9.21;81.64;99393.13;4987471;28;119343;-71
2022/05/02 01:12:14;;;;;;;14.40;10.45;;;8.40;1.00;;;9.20;82.82;99398.84;5018555;28;129936;-69
2022/05/02 01:14:43;;;;;;;16.45;10.48;;;8.40;1.00;;;9.18;82.93;99399.16;5019507;28;129910;-69
2022/05/02 01:17:13;;;;;;;15.88;10.77;;;8.40;1.00;;;9.18;83.61;99399.16;5019067;28;119811;-72
2022/05/02 01:19:43;;;;;;;15.02;11.00;;;8.40;1.00;;;9.24;83.17;99389.81;5018890;28;119528;-70
2022/05/02 01:22:13;;;;;;;17.00;10.68;;;8.40;1.00;;;9.37;82.03;99390.88;5017439;28;129768;-70
2022/05/02 01:24:44;;;;;;;17.20;10.90;;;8.30;1.00;;;9.49;81.38;99387.63;5018538;28;129448;-72
2022/05/02 01:27:14;;;;;;;16.92;10.52;;;8.40;1.00;;;9.59;81.05;99390.09;5018903;28;119990;-71
2022/05/02 01:29:45;;;;;;;14.95;10.27;;;8.40;1.00;;;9.65;80.77;99394.28;4987427;28;118296;-70
2022/05/02 01:32:17;;;;;;;17.08;11.02;;;8.40;1.00;;;9.63;80.82;99393.81;5003767;28;130360;-70
2022/05/02 01:34:46;;;;;;;16.67;10.68;;;8.40;1.00;;;9.47;81.28;99396.06;5018497;28;130027;-69
2022/05/02 01:37:16;;;;;;;16.83;10.85;;;8.40;1.00;;;9.43;81.89;99381.53;5004018;28;118773;-71
2022/05/02 01:39:44;;;;;;;16.67;11.35;;;8.40;1.00;;;9.50;81.76;99383.81;4987718;28;119425;-71
2022/05/02 01:42:13;;;;;;;16.38;10.80;;;8.50;1.00;;;9.63;81.43;99382.97;5018333;28;129875;-69
2022/05/02 01:44:42;;;;;;;17.40;9.95;;;8.50;1.00;;;9.71;81.44;99379.50;5018183;28;129949;-71
2022/05/02 01:47:10;;;;;;;15.20;10.32;;;8.50;1.00;;;9.79;81.03;99380.69;5018939;28;121718;-70
2022/05/02 01:49:39;;;;;;;17.15;11.35;;;8.50;1.00;;;9.82;81.15;99369.22;5018526;28;122356;-70
2022/05/02 01:52:08;;;;;;;16.23;10.98;;;8.50;1.00;;;9.86;81.10;99364.78;5003149;28;129477;-71
2022/05/02 01:54:38;;;;;;;17.60;10.75;;;8.50;1.00;;;9.89;80.88;99361.47;5018793;28;129266;-73
2022/05/02 01:57:07;;;;;;;15.32;10.93;;;8.50;1.00;;;9.89;81.87;99357.94;4988680;28;120734;-72
2022/05/02 01:59:36;;;;;;;15.68;11.23;;;8.60;1.00;;;9.88;81.73;99357.13;5018531;28;119421;-70
2022/05/02 02:02:05;;;;;;;16.73;11.55;;;8.60;1.00;;;9.89;81.72;99353.31;5009155;28;129439;-71
2022/05/02 02:07:20;;;;;;;21.47;11.47;;;8.60;1.00;;;9.66;82.86;99349.84;5003111;28;119526;-70
2022/05/02 02:09:50;;;;;;;15.75;11.40;;;8.50;1.00;;;9.71;82.45;99349.69;4986345;28;118876;-70
2022/05/02 02:12:19;;;;;;;18.95;11.65;;;8.50;1.00;;;9.77;82.13;99349.56;5016818;28;131098;-70
2022/05/02 02:14:50;;;;;;;17.77;12.45;;;8.50;1.00;;;9.75;82.01;99346.38;5017689;28;129564;-70
2022/05/02 02:17:19;;;;;;;20.63;12.65;;;8.40;1.00;;;9.42;84.27;99338.50;5017984;28;120432;-69
2022/05/02 02:19:47;;;;;;;16.45;11.38;;;8.40;1.00;;;9.19;85.80;99335.75;5017857;28;120147;-68
2022/05/02 02:22:19;;;;;;;18.10;12.60;;;8.30;1.00;;;9.27;85.22;99350.47;5017967;28;130066;-69
2022/05/02 02:24:49;;;;;;;19.38;11.85;;;8.30;1.00;;;9.37;84.29;99333.22;4986327;28;128448;-69
2022/05/02 02:27:18;;;;;;;16.60;12.38;;;8.20;1.00;;;9.32;84.82;99334.13;5018025;28;120889;-69
2022/05/02 02:29:46;;;;;;;20.00;12.02;;;8.10;1.00;;;9.36;84.50;99329.69;5018174;28;119172;-71
2022/05/02 02:32:15;;;;;;;17.88;11.18;;;8.10;1.00;;;9.42;83.86;99338.50;5017414;28;129790;-69
2022/05/02 02:34:43;;;;;;;16.52;11.20;;;8.10;1.00;;;9.41;83.51;99326.06;5017584;28;130286;-68
2022/05/02 02:37:12;;;;;;;13.90;10.40;;;8.20;1.00;;;9.43;83.09;99329.28;4998493;28;122202;-69
2022/05/02 02:39:40;;;;;;;14.45;10.13;;;8.30;1.00;;;9.48;82.23;99331.84;5017856;28;122982;-73
2022/05/02 02:42:10;;;;;;;16.63;10.05;;;8.40;1.00;;;9.48;81.32;99321.03;5017772;28;130120;-69
2022/05/02 02:44:39;;;;;;;16.05;10.27;;;8.40;1.00;;;9.56;80.41;99317.56;5017539;28;129944;-71
2022/05/02 02:47:08;;;;;;;14.82;10.90;;;8.40;1.00;;;9.59;79.65;99322.38;5035576;27;119649;-73
2022/05/02 02:49:37;;;;;;;16.83;10.10;;;8.40;1.00;;;9.65;79.39;99323.03;5038063;27;119337;-70
2022/05/02 02:52:07;;;;;;;18.63;10.57;;;8.50;1.00;;;9.74;79.09;99329.31;5020687;27;130708;-70
2022/05/02 02:54:36;;;;;;;15.85;10.20;;;8.50;1.00;;;9.82;78.68;99325.06;5017868;28;129627;-71
2022/05/02 02:57:04;;;;;;;16.30;10.35;;;8.50;1.00;;;9.88;78.52;99318.41;5018073;28;120037;-71
2022/05/02 02:59:34;;;;;;;14.45;10.23;;;8.60;1.00;;;9.94;77.86;99338.84;5017325;28;119401;-69
2022/05/02 03:02:03;;;;;;;15.32;9.63;;;8.60;1.00;;;10.01;77.51;99333.75;5016042;28;130408;-71
2022/05/02 03:07:19;;;;;;;14.07;9.93;;;8.70;1.00;;;10.11;76.92;99326.47;5005921;28;118885;-70
2022/05/02 03:09:47;;;;;;;16.15;10.73;;;8.70;1.00;;;10.14;76.59;99342.09;5020891;28;119262;-71
2022/05/02 03:12:16;;;;;;;15.25;10.13;;;8.80;1.00;;;10.19;76.43;99331.13;5005555;28;128467;-70
2022/05/02 03:14:45;;;;;;;13.20;9.57;;;8.90;1.00;;;10.29;75.82;99332.78;5020758;28;129801;-70
2022/05/02 03:17:14;;;;;;;15.27;9.98;;;8.90;1.00;;;10.40;75.20;99334.91;5017769;28;125493;-70
2022/05/02 03:19:42;;;;;;;14.82;10.15;;;9.00;1.00;;;10.49;74.30;99323.28;5017761;28;126019;-72
2022/05/02 03:22:11;;;;;;;13.50;9.75;;;9.00;1.00;;;10.52;74.19;99328.09;4998885;28;129987;-70
2022/05/02 03:24:39;;;;;;;15.95;10.50;;;9.10;1.00;;;10.50;73.84;99319.44;4999341;28;129413;-71
2022/05/02 03:27:08;;;;;;;14.55;10.32;;;9.10;1.00;;;10.58;74.20;99326.81;5017221;28;127187;-70
2022/05/02 03:29:37;;;;;;;14.32;10.20;;;9.10;1.00;;;10.64;74.16;99322.81;5007478;27;126216;-71
2022/05/02 03:32:08;;;;;;;16.30;9.98;;;9.10;1.00;;;10.75;73.77;99329.59;5022658;27;129100;-70
2022/05/02 03:34:36;;;;;;;15.32;10.30;;;9.20;1.00;;;10.82;73.46;99323.69;5037950;27;129466;-70
2022/05/02 03:37:05;;;;;;;15.55;10.25;;;9.20;1.00;;;10.89;72.90;99334.06;5037666;27;126455;-71
2022/05/02 03:39:34;;;;;;;15.73;10.15;;;9.20;1.00;;;10.94;72.85;99331.22;5037512;27;126607;-71
2022/05/02 03:42:03;;;;;;;14.23;9.82;;;9.20;1.00;;;10.78;73.35;99322.69;5022390;27;129543;-70
2022/05/02 03:44:31;;;;;;;16.80;10.43;;;9.20;1.00;;;10.84;72.56;99326.88;5037623;27;129485;-70
2022/05/02 03:46:59;;;;;;;14.35;10.20;;;9.10;1.00;;;10.86;72.22;99330.06;5039168;27;125486;-71
2022/05/02 03:49:29;;;;;;;13.93;10.13;;;9.10;1.00;;;10.93;72.06;99326.88;5037547;27;125447;-68
2022/05/02 03:51:58;;;;;;;15.23;10.23;;;9.10;1.00;;;10.94;72.20;99331.22;5022200;27;129390;-70
2022/05/02 03:54:27;;;;;;;15.15;9.70;;;9.10;1.00;;;11.01;72.10;99331.53;5039738;27;102591;-70
2022/05/02 03:56:56;;;;;;;14.27;10.13;;;9.10;1.00;;;11.13;72.07;99339.03;5037401;27;125543;-69
2022/05/02 03:59:24;;;;;;;14.45;10.02;;;9.20;1.00;;;11.28;71.80;99327.69;5005493;27;125563;-68
2022/05/02 04:01:53;;;;;;;16.58;10.23;;;9.30;1.00;;;11.30;72.38;99328.19;5036981;27;130399;-69
2022/05/02 04:04:21;;;;;;;16.95;10.75;;;9.40;1.00;;;11.51;71.92;99338.38;5038826;27;128983;-68
2022/05/02 04:06:52;;;;;;;18.67;10.98;;;9.50;1.00;;;11.50;71.88;99337.59;5036890;27;125440;-69
2022/05/02 04:09:20;;;;;;;17.63;10.73;;;9.60;1.00;;;11.35;72.22;99323.72;5037626;27;125642;-69
2022/05/02 04:11:48;;;;;;;16.02;10.60;;;9.50;1.00;;;11.63;71.80;99329.59;5036956;27;129916;-70
2022/05/02 04:14:17;;;;;;;15.95;10.90;;;9.70;1.00;;;11.75;71.45;99323.47;5033420;27;129050;-70
2022/05/02 04:16:45;;;;;;;16.75;10.93;;;9.80;1.00;;;11.91;69.69;99323.78;4999772;27;126193;-70
2022/05/02 04:19:15;;;;;;;13.93;10.75;;;9.90;1.00;;;11.93;69.42;99332.44;5033076;27;128135;-70
2022/05/02 04:21:43;;;;;;;17.88;10.98;;;9.90;1.00;;;11.96;69.11;99334.50;5028849;27;130330;-72
2022/05/02 04:24:14;;;;;;;17.90;11.75;;;9.90;1.00;;;11.75;69.25;99329.72;5017708;27;130762;-71
2022/05/02 04:26:42;;;;;;;15.10;10.73;;;9.80;1.00;;;11.93;68.88;99327.78;5036906;27;127003;-69
2022/05/02 04:29:11;;;;;;;16.70;11.38;;;9.90;1.00;;;11.94;68.44;99328.59;5018477;27;125808;-70
2022/05/02 04:31:39;;;;;;;17.83;11.40;;;9.90;1.00;;;12.03;68.08;99324.72;5021600;27;130058;-70
2022/05/02 04:34:07;;;;;;;16.42;11.32;;;10.00;1.00;;;12.16;67.76;99320.19;5038839;27;128612;-71
2022/05/02 04:36:36;;;;;;;17.05;11.10;;;10.10;1.00;;;12.55;66.32;99329.13;5038572;27;125294;-71
2022/05/02 04:39:04;;;;;;;17.23;11.75;;;10.40;1.00;;;12.71;65.54;99323.09;5036639;27;126303;-71
2022/05/02 04:41:35;;;;;;;17.35;12.27;;;10.50;1.00;;;12.66;65.09;99320.59;5004000;27;129603;-72
2022/05/02 04:44:04;;;;;;;19.23;11.93;;;10.50;1.00;;;12.59;65.15;99334.72;5036732;27;130166;-69
2022/05/02 04:46:32;;;;;;;15.93;12.35;;;10.40;1.00;;;12.57;64.86;99324.16;5037897;27;125913;-70
2022/05/02 04:49:01;;;;;;;18.13;11.60;;;10.40;1.00;;;12.67;64.49;99322.16;5036399;27;127311;-70
2022/05/02 04:51:29;;;;;;;14.48;10.65;;;10.40;1.00;;;12.90;63.81;99319.94;5036403;27;129520;-72
2022/05/02 04:53:57;;;;;;;16.77;10.80;;;10.60;1.00;;;13.04;63.52;99325.13;5037715;27;129785;-71
2022/05/02 04:56:26;;;;;;;15.57;10.68;;;10.70;1.00;;;13.08;63.48;99323.34;5038292;27;125296;-73
2022/05/02 04:58:55;;;;;;;18.38;11.45;;;10.70;1.00;;;13.08;63.76;99329.56;5038761;27;124218;-72
2022/05/02 05:01:24;;;;;;;17.45;10.98;;;10.70;1.00;;;13.20;63.50;99315.22;5036066;27;130235;-73
2022/05/02 05:03:52;;;;;;;19.42;11.50;;;10.80;1.00;;;13.28;64.52;99319.81;5038998;27;129976;-71
2022/05/02 05:06:21;;;;;;;15.95;10.43;;;10.90;1.00;;;13.39;64.11;99308.53;5017781;27;126550;-71
2022/05/02 05:08:50;;;;;;;15.30;10.68;;;11.00;1.00;;;13.55;62.75;99322.31;5021273;27;125991;-72
2022/05/02 05:11:36;;;;;;;18.58;12.13;;;11.10;1.00;;;13.55;60.99;99316.88;5035713;27;130072;-72
2022/05/02 05:17:16;;;;;;;15.35;10.45;;;11.20;1.00;;;14.19;60.09;99315.53;4997821;27;125238;-73
2022/05/02 05:20:04;;;;;;;16.10;10.23;;;11.60;1.00;;;14.85;57.77;99330.91;5021029;27;124956;-74
2022/05/02 05:23:08;;;;;;;13.75;10.02;;;12.10;1.00;;;14.68;57.62;99323.75;5035805;27;130767;-70
2022/05/02 05:25:50;;;;;;;16.63;10.00;;;12.00;1.00;;;14.64;58.38;99328.28;5021104;27;130040;-73
2022/05/02 05:29:13;;;;;;;14.30;9.77;;;12.00;1.00;;;14.45;58.42;99325.31;5019568;27;125525;-71
2022/05/02 05:31:57;;;;;;;16.80;10.27;;;12.00;1.00;;;14.34;58.90;99320.31;5017809;27;125791;-71
2022/05/02 05:34:39;;;;;;;12.88;8.98;;;11.70;1.00;;;14.59;57.63;99330.44;5035322;27;129959;-72
2022/05/02 05:37:53;;;;;;;14.27;9.65;;;12.10;1.00;;;14.73;57.99;99326.22;5035614;27;130189;-71
2022/05/02 05:40:28;;;;;;;11.68;8.27;;;12.00;1.00;;;15.23;55.09;99326.91;5005927;27;125293;-71
2022/05/02 05:43:10;;;;;;;13.30;8.70;;;12.40;1.00;;;15.37;53.92;99323.00;5020492;27;124992;-71
2022/05/02 05:45:58;;;;;;;14.75;8.65;;;12.80;1.00;;;15.54;53.22;99324.66;5020191;27;129545;-73
2022/05/02 05:48:43;;;;;;;12.70;7.88;;;13.00;1.00;;;15.36;53.26;99324.94;5013133;28;129795;-71
2022/05/02 05:51:28;;;;;;;16.50;8.48;;;12.90;1.00;;;14.77;55.47;99315.41;4991958;28;126307;-72
2022/05/02 05:54:12;;;;;;;11.55;7.97;;;12.40;1.00;;;14.63;53.72;99315.78;5015790;28;126315;-70
2022/05/02 05:56:54;;;;;;;20.17;7.25;;;12.30;1.00;;;14.71;53.77;99312.13;5000234;28;129742;-70
2022/05/02 05:59:33;;;;;;;11.70;6.80;;;12.30;1.00;;;14.58;53.21;99318.72;4997045;28;129459;-75
2022/05/02 06:02:19;;;;;;;11.40;6.30;;;12.10;1.00;;;14.42;53.37;99317.81;5003854;28;126120;-72
2022/05/02 06:04:51;;;;;;;12.95;6.68;;;12.10;1.00;;;14.27;53.85;99327.47;5014951;28;126747;-68
2022/05/02 06:07:22;;;;;;;10.80;6.70;;;12.00;1.00;;;14.38;53.97;99326.69;4999713;28;129449;-69
2022/05/02 06:09:51;;;;;;;12.07;6.20;;;12.00;1.00;;;14.58;53.10;99332.34;5015215;28;129873;-69
2022/05/02 06:12:22;;;;;;;12.18;6.28;;;12.10;1.00;;;15.22;52.75;99324.53;5014067;28;125871;-71
2022/05/02 06:20:35;;;;;;;12.07;6.28;;;13.10;1.00;;;15.76;50.03;99304.91;5017392;27;128548;-72
2022/05/02 06:23:03;;;;;;;11.55;6.82;;;13.20;1.00;;;15.80;50.08;99310.53;4993460;28;126473;-71
2022/05/02 06:25:36;;;;;;;10.00;6.65;;;13.10;1.00;;;15.80;49.76;99310.53;4983407;28;125720;-71
2022/05/02 06:28:08;;;;;;;12.88;6.90;;;13.30;1.00;;;15.70;50.80;99313.75;5004023;27;128235;-71
2022/05/02 06:30:38;;;;;;;9.52;6.18;;;13.20;1.00;;;15.93;50.29;99303.03;5014741;28;129972;-72
2022/05/02 06:33:12;;;;;;;11.82;6.85;;;13.20;1.00;;;16.14;49.68;99313.72;5014650;28;125592;-72
2022/05/02 06:35:56;;;;;;;9.48;6.57;;;13.30;1.00;;;16.62;49.03;99316.41;5010538;28;125480;-71
2022/05/02 06:38:42;;;;;;;9.60;6.10;;;13.80;1.00;;;16.88;48.03;99308.41;5014219;28;130575;-72
2022/05/02 06:41:20;;;;;;;;;;;14.30;1.00;;;17.10;46.55;99303.41;5000317;28;128440;-71
2022/05/02 06:44:03;;;;;;;9.40;5.80;;;14.40;1.00;;;17.44;45.96;99306.44;5014841;28;125930;-69
2022/05/02 06:46:39;;;;;;;11.00;6.05;;;14.40;1.00;;;17.30;44.94;99311.63;5026900;27;127142;-66
2022/05/02 06:49:13;;;;;;;10.23;5.68;;;14.20;1.00;;;17.32;45.81;99306.56;5022067;27;130877;-69
2022/05/02 06:51:49;;;;;;;8.05;5.75;;;14.00;1.00;;;17.52;45.88;99299.91;5036151;27;130037;-69
2022/05/02 06:55:01;;;;;;;10.73;5.73;;;14.20;1.00;;;17.44;47.96;99303.69;5018963;27;126555;-68
2022/05/02 06:57:50;;;;;;;13.13;6.60;;;14.10;1.00;;;17.59;48.21;99302.00;5036723;27;125088;-70
2022/05/02 07:00:20;;;;;;;10.85;5.20;;;14.70;1.00;;;17.67;45.69;99308.41;5034173;27;131410;-74
2022/05/02 07:03:21;;;;;;;9.25;5.05;;;14.10;1.00;;;17.16;45.37;99304.69;5027774;27;129690;-76
2022/05/02 07:06:06;;;;;;;10.48;5.97;;;13.50;1.00;;;16.78;46.49;99308.97;5020243;27;125401;-76
2022/05/02 07:08:44;;;;;;;9.30;5.55;;;13.40;1.00;;;16.64;46.90;99303.16;5032341;27;125732;-74
2022/05/02 07:11:21;;;;;;;7.57;5.40;;;13.30;1.00;;;16.70;47.21;99307.19;5015728;27;131187;-74
2022/05/02 07:14:11;;;;;;;10.68;5.38;;;13.20;1.00;;;16.29;48.07;99303.91;5036272;27;129621;-75
2022/05/02 07:16:48;;;;;;;7.97;5.10;;;13.30;1.00;;;16.32;46.69;99314.16;5016710;27;125092;-73
2022/05/02 07:19:38;;;;;;;8.07;5.18;;;13.40;1.00;;;16.18;46.75;99309.13;5017630;27;125535;-75
2022/05/02 07:22:11;;;;;;;8.00;5.22;;;13.10;1.00;;;16.03;47.29;99313.44;5026809;27;130799;-73
2022/05/02 07:24:52;;;;;;;11.50;4.97;;;13.10;1.00;;;15.62;47.73;99313.53;5011650;28;129160;-75
2022/05/02 07:27:40;;;;;;;11.95;5.68;;;12.90;1.00;;;15.89;48.18;99307.59;5005078;27;124960;-74
2022/05/02 07:30:10;;;;;;;7.75;4.80;;;13.40;1.00;;;16.05;46.57;99308.44;5019651;27;125336;-76
2022/05/02 07:32:39;;;;;;;9.20;5.47;;;13.40;1.00;;;15.91;47.64;99311.59;5020347;27;130547;-76
2022/05/02 07:35:10;;;;;;;8.02;4.97;;;13.50;1.00;;;16.11;47.16;99306.19;5024508;27;129902;-75
2022/05/02 07:37:44;;;;;;;9.65;5.15;;;13.40;1.00;;;16.48;47.98;99306.69;5015547;27;126847;-74
2022/05/02 07:40:16;;;;;;;9.10;5.18;;;14.20;1.00;;;16.43;46.47;99312.47;5034601;27;126267;-76
2022/05/02 07:42:45;;;;;;;7.95;4.50;;;14.30;1.00;;;16.78;44.76;99311.72;5006409;27;130165;-76
2022/05/02 07:45:17;;;;;;;9.98;4.93;;;13.90;1.00;;;17.36;43.46;99300.00;4963831;28;129123;-76
2022/05/02 07:47:49;;;;;;;8.00;4.35;;;14.40;1.00;;;17.76;43.08;99307.03;5011638;28;127023;-75
2022/05/02 07:50:21;;;;;;;8.05;4.03;;;15.10;1.00;;;18.28;40.97;99293.81;4998383;28;126554;-76
2022/05/02 07:52:52;;;;;;;9.27;4.47;;;15.70;1.00;;;18.12;40.92;99301.38;5028274;27;130336;-74
2022/05/02 07:55:24;;;;;;;8.75;4.70;;;15.10;1.00;;;17.91;40.38;99302.59;5057460;27;129445;-73
2022/05/02 07:57:56;;;;;;;8.77;4.25;;;14.30;1.00;;;17.52;40.48;99297.16;5002782;27;124580;-75
2022/05/02 08:00:24;;;;;;;8.85;4.20;;;14.00;1.00;;;17.02;40.22;99313.41;5034764;27;126983;-74
2022/05/02 08:02:53;;;;;;;6.03;3.63;;;13.70;1.00;;;17.02;40.44;99307.16;5016993;27;130795;-73
2022/05/02 08:05:22;;;;;;;6.65;3.28;;;13.90;1.00;;;16.79;40.01;99301.53;4992133;27;130022;-75
2022/05/02 08:08:01;;;;;;;6.88;3.28;;;14.00;1.00;;;16.91;39.30;99301.44;5004310;28;127181;-75
2022/05/02 08:10:57;;;;;;;6.82;4.07;;;14.10;1.00;;;16.53;39.09;99303.72;5008008;27;124369;-73
2022/05/02 08:13:44;;;;;;;6.72;3.60;;;13.80;1.00;;;16.25;39.31;99297.53;5008931;27;129359;-74
2022/05/02 08:16:23;;;;;;;9.93;3.38;;;13.80;1.00;;;16.23;40.11;99308.84;5014123;27;129508;-75
2022/05/02 08:19:10;;;;;;;10.15;3.25;;;13.90;1.00;;;16.23;39.20;99299.84;5013169;27;126281;-74
2022/05/02 08:21:42;;;;;;;;;;;14.20;1.00;;;16.39;38.76;99292.41;5035852;27;125877;-75
2022/05/02 08:27:46;;;;;;;8.15;3.53;;;14.00;1.00;;;16.65;38.24;99288.31;5021063;27;129165;-76
2022/05/02 08:30:22;;;;;;;5.13;3.15;;;14.00;1.00;;;17.12;38.87;99290.09;5021619;27;125530;-74
2022/05/02 08:33:01;;;;;;;6.50;2.90;;;14.60;1.00;;;16.69;39.01;99291.94;5022004;27;124367;-76
2022/05/02 08:35:58;;;;;;;7.57;3.08;;;14.50;1.00;;;16.53;38.70;99298.22;5036500;27;130405;-75
2022/05/02 08:38:51;;;;;;;7.20;2.90;;;14.60;1.00;;;17.07;37.44;99298.63;5031564;27;129498;-75
2022/05/02 08:42:07;;;;;;;7.45;3.88;;;14.70;1.00;;;17.32;36.44;99281.91;5021564;27;125560;-76
2022/05/02 08:45:29;;;;;;;8.23;3.53;;;14.70;1.00;;;18.00;35.61;99276.84;5037476;27;125589;-77
2022/05/02 08:52:34;;;;;;;6.22;3.22;;;16.20;1.00;;;18.90;35.04;99279.03;5036529;27;129845;-75
2022/05/02 08:55:23;;;;;;;6.20;3.33;;;15.70;1.00;;;19.25;34.02;99272.38;5036289;27;125836;-76
2022/05/02 08:58:42;;;;;;;6.00;3.20;;;15.60;1.00;;;19.16;33.84;99269.13;5032693;27;124926;-78
2022/05/02 09:01:53;;;;;;;8.95;6.07;;;16.00;1.00;;;19.11;33.78;99269.44;5004962;27;130063;-74
2022/05/02 09:05:14;;;;;;;7.60;3.88;;;16.00;1.00;;;18.02;35.51;99274.56;5033064;27;130924;-74
2022/05/02 09:08:54;;;;;;;5.38;3.03;;;14.70;1.00;;;18.33;35.63;99267.97;4988062;27;124932;-73
2022/05/02 09:12:21;;;;;;;7.00;3.38;;;15.30;1.00;;;17.83;35.88;99262.44;4959970;28;124789;-75
2022/05/02 09:15:25;;;;;;;6.82;3.70;;;14.60;1.00;;;17.91;36.48;99261.44;5035808;27;130233;-80
2022/05/02 09:18:49;;;;;;;5.82;3.30;;;14.80;1.00;;;17.65;36.57;99262.13;4986913;27;128892;-74
2022/05/02 09:21:29;;;;;;;9.30;4.05;;;15.20;1.00;;;17.69;37.27;99262.19;5002059;27;125933;-76
2022/05/02 09:24:43;;;;;;;8.80;3.33;;;15.50;1.00;;;17.94;36.21;99252.47;5020243;27;126178;-73
2022/05/02 09:27:25;;;;;;;7.20;3.38;;;15.40;1.00;;;17.59;37.30;99247.94;5011025;27;129754;-75
2022/05/02 09:30:48;;;;;;;5.07;2.88;;;15.20;1.00;;;17.45;36.74;99247.66;4999136;28;129391;-77
2022/05/02 09:33:36;;;;;;;6.03;3.25;;;14.80;1.00;;;17.06;37.42;99247.69;4999770;28;124536;-75
2022/05/02 09:36:35;;;;;;;6.68;3.55;;;14.60;1.00;;;16.78;38.72;99247.88;5016139;28;124199;-76
2022/05/02 09:39:15;;;;;;;7.22;3.17;;;14.40;1.00;;;16.49;39.31;99248.03;4958609;28;130216;-77
2022/05/02 09:42:20;;;;;;;6.22;2.95;;;14.30;1.00;;;16.16;39.50;99249.25;5030977;27;129802;-77
2022/05/02 09:52:10;;;;;;;6.80;3.42;;;15.50;1.00;;;17.87;35.95;99227.63;4997418;28;130747;-76
2022/05/02 09:58:37;;;;;;;6.00;3.03;;;15.20;1.00;;;17.34;37.45;99219.22;5015616;28;126083;-76
2022/05/02 10:01:17;;;;;;;5.03;2.90;;;15.00;1.00;;;17.08;37.56;99223.47;5000231;28;124810;-76
2022/05/02 10:04:28;;;;;;;7.55;3.53;;;14.80;1.00;;;16.61;39.36;99213.47;4983125;28;128744;-75
2022/05/02 10:06:59;;;;;;;7.68;3.22;;;14.50;1.00;;;16.87;39.14;99224.59;4984189;28;129049;-72
2022/05/02 10:09:51;;;;;;;7.30;3.08;;;14.70;1.00;;;17.29;37.25;99212.09;5015336;28;126586;-72
2022/05/02 10:12:28;;;;;;;6.40;2.83;;;15.00;1.00;;;17.78;37.67;99203.16;4999245;28;125921;-78
2022/05/02 10:15:43;;;;;;;7.10;3.08;;;15.90;1.00;;;18.02;35.60;99203.16;5014026;28;130368;-76
2022/05/02 10:18:44;;;;;;;9.68;3.40;;;15.60;1.00;;;17.48;36.21;99208.50;5003649;28;130707;-76
2022/05/02 10:21:34;;;;;;;4.72;2.83;;;15.60;1.00;;;17.00;35.81;99199.78;5000435;28;125575;-73
2022/05/02 10:24:46;;;;;;;5.00;2.65;;;14.90;1.00;;;16.79;36.07;99200.94;5015523;28;126437;-74
2022/05/02 10:27:34;;;;;;;5.05;2.80;;;14.60;1.00;;;17.00;36.27;99199.78;4985394;28;130155;-74
2022/05/02 10:30:11;;;;;;;6.07;2.78;;;14.80;1.00;;;17.44;36.34;99202.19;5002344;28;129886;-73
2022/05/02 10:32:56;;;;;;;6.63;2.60;;;15.70;1.00;;;18.05;35.28;99196.94;5015888;28;126576;-75
2022/05/02 10:35:26;;;;;;;8.05;2.78;;;16.30;1.00;;;18.15;34.10;99201.78;4998715;27;125696;-76
2022/05/02 10:37:59;;;;;;;4.75;2.40;;;15.50;1.00;;;17.86;35.16;99190.34;5026396;27;130567;-76
2022/05/02 10:40:38;;;;;;;8.98;3.08;;;15.50;1.00;;;17.58;35.66;99196.94;4999700;28;129162;-74
2022/05/02 10:43:09;;;;;;;6.60;3.30;;;15.30;1.00;;;17.82;35.20;99184.00;4997357;28;127316;-75
2022/05/02 10:45:40;;;;;;;5.72;2.60;;;15.60;1.00;;;18.11;34.04;99182.50;5017867;28;126740;-76
2022/05/02 10:48:20;;;;;;;6.53;2.72;;;15.60;1.00;;;18.63;32.75;99171.81;5015835;28;130039;-75
2022/05/02 10:51:02;;;;;;;6.50;2.60;;;15.80;1.00;;;19.24;34.08;99160.75;5015875;28;130888;-77
2022/05/02 10:54:10;;;;;;;6.45;2.78;;;16.80;1.00;;;19.48;32.76;99158.63;4998936;28;126833;-76
2022/05/02 10:56:57;;;;;;;7.05;2.88;;;17.40;1.00;;;19.41;32.35;99173.09;5000467;28;125929;-75
2022/05/02 10:59:35;;;;;;;10.25;2.97;;;16.80;1.00;;;19.27;31.37;99159.97;5016742;28;129260;-77
2022/05/02 11:02:42;;;;;;;3.63;2.50;;;16.40;1.00;;;19.16;32.04;99162.63;5000379;28;128035;-76
2022/05/02 11:05:15;;;;;;;6.63;3.30;;;16.00;1.00;;;19.38;32.07;99160.91;4981916;28;125677;-76
2022/05/02 11:08:09;;;;;;;8.60;3.13;;;16.20;1.00;;;19.04;32.71;99158.19;4997799;28;125437;-75
2022/05/02 11:10:51;;;;;;;6.35;2.97;;;16.80;1.00;;;19.54;31.22;99151.56;5014727;28;129720;-76
2022/05/02 11:13:33;;;;;;;11.60;5.95;;;16.70;1.00;;;20.12;31.50;99147.31;4996795;28;129560;-75
2022/05/02 11:16:26;;;;;;;94.78;44.05;;;17.40;1.00;;;19.86;30.68;99138.09;4996619;28;126121;-75
2022/05/02 11:22:20;;;;;;;19.48;13.77;;;16.90;99.90;;;19.49;30.70;99138.94;4979700;28;130108;-76
2022/05/02 11:24:59;;;;;;;6.10;3.30;;;17.30;99.90;;;19.24;30.20;99133.22;4946734;28;129127;-76
2022/05/02 11:27:59;;;;;;;7.75;2.80;;;17.20;99.90;;;19.20;30.85;99124.97;5000145;28;124760;-76
2022/05/02 11:30:29;;;;;;;4.88;2.92;;;17.10;99.90;;;19.60;29.65;99130.78;4983790;28;124311;-76
2022/05/02 11:33:13;;;;;;;6.25;2.67;;;16.90;99.90;;;19.65;30.30;99135.94;4999337;28;129431;-77
2022/05/02 11:35:50;;;;;;;5.28;2.08;;;17.00;99.90;;;20.03;29.03;99122.84;4983351;28;129014;-77
2022/05/02 11:38:33;;;;;;;6.22;2.20;;;17.80;99.90;;;20.36;28.57;99123.81;4982569;28;126080;-76
2022/05/02 11:41:12;;;;;;;10.15;2.80;;;17.90;99.90;;;20.54;27.34;99123.13;4966682;28;125537;-74